Terminal Aerodrome Forecast
Issued by NWS Blacksburg, VA

Home | Current Version | Previous Version | Text Only | Print | Product List | Glossary On
Versions: 1 2 3 4 5 6 7 8 9 10 11 12 13 14 15 16 17 18 19 20 21 22 23 24 25 26
000
FTUS41 KRNK 170525
TAFROA
TAF
KROA 170525Z 1706/1806 05003KT P6SM BKN040 OVC060
     FM170900 08003KT P6SM BKN015 OVC030
      TEMPO 1709/1712 4SM -DZ BR SCT006 OVC012
     FM171200 09005KT 5SM -DZ BR OVC007
     FM171600 10005KT P6SM SCT010 BKN020
     FM171900 12003KT P6SM SCT015 BKN035
     FM180000 10004KT P6SM SCT025=

USA.gov is the U.S. government's official web portal to all federal, state and local government web resources and services.